Thursday, April 17, 2014, 10:58 PM EDT

KNHK, Nas Patuxent River Md

Location: Patuxent River, MD, United States Lat: 38.3
Local Time: 10:58 PM EDT ( 2:58 GMT) Lon: -76.4
Time Zone: US/Eastern Elev: 39 ft

Show me the last for .
Show Decoded

2014-04-17 21:52 METAR KNHK 180152Z 09013KT 10SM SCT026 05/M01 A3057 RMK AO2 SLP353 T00501006 =
2014-04-17 21:50 METAR KNHK 180150Z 09013KT 10SM SCT026 05/M01 A3058 RMK AO2 =
2014-04-17 21:36 METAR KNHK 180136Z 07011KT 10SM BKN026 05/M01 A3058 RMK AO2 T00501011 =
2014-04-17 20:52 METAR KNHK 180052Z 07012KT 10SM FEW025 BKN250 06/M01 A3058 RMK AO2 SLP354
                 T00561006 =
2014-04-17 19:52 METAR KNHK 172352Z 08013KT 10SM FEW025 FEW050 BKN250 07/00 A3058 RMK AO2 SLP354
                 T00670000 10117 20067 51004 =
2014-04-17 18:52 METAR KNHK 172252Z 08011KT 10SM FEW030 FEW050 BKN250 08/M01 A3058 RMK AO2 SLP353
                 T00831006 =
2014-04-17 17:52 METAR KNHK 172152Z 09011KT 10SM FEW040 BKN250 09/00 A3057 RMK AO2 SLP353
                 T00940000 =
2014-04-17 16:52 METAR KNHK 172052Z 09011KT 10SM FEW045 BKN250 11/00 A3056 RMK AO2 SLP350
                 T01110000 56016 =
2014-04-17 15:52 METAR KNHK 171952Z 10010KT 10SM FEW041 FEW090 BKN250 11/01 A3057 RMK AO2 SLP353
                 T01110006 =
2014-04-17 14:52 METAR KNHK 171852Z 10006KT 10SM FEW040 BKN250 10/M01 A3060 RMK AO2 SLP361
                 T01001006 =
2014-04-17 13:52 METAR KNHK 171752Z 11006KT 10SM SCT038 SCT250 10/M01 A3061 RMK AO2 SLP366
                 T01001006 10106 20061 58015 =
2014-04-17 12:52 METAR KNHK 171652Z 08009KT 10SM SCT037 SCT250 10/00 A3064 RMK AO2 SLP374
                 T01000000 =
2014-04-17 11:52 METAR KNHK 171552Z 11010KT 10SM SCT036 SCT250 09/M01 A3065 RMK AO2 SLP379
                 T00891006 =
2014-04-17 10:52 METAR KNHK 171452Z 09011KT 10SM SCT034 SCT250 08/M01 A3066 RMK AO2 SLP381
                 T00831006 51011 =
2014-04-17 09:52 METAR KNHK 171352Z 09011KT 10SM SCT031 BKN250 08/00 A3065 RMK AO2 SLP378
                 T00780000 =
2014-04-17 08:52 METAR KNHK 171252Z 08010KT 10SM FEW030 BKN300 07/M01 A3064 RMK AO2 SLP374
                 T00721006 =
2014-04-17 07:52 METAR KNHK 171152Z 06008KT 10SM FEW030 SCT300 06/M01 A3062 RMK AO2 SLP370
                 T00611006 10061 20028 53023 =
2014-04-17 06:52 METAR KNHK 171052Z 07007KT 10SM FEW030 BKN300 04/M02 A3060 RMK AO2 SLP360
                 T00441017 =
2014-04-17 05:52 METAR KNHK 170952Z 06006KT 10SM FEW250 03/M02 A3057 RMK AO2 SLP352 T00331017 =
2014-04-17 05:02 METAR KNHK 170902Z 06005KT 10SM CLR 03/M02 A3055 RMK AO2 T00281017 =
2014-04-17 04:52 METAR KNHK 170852Z AUTO 05006KT 10SM CLR 03/M02 A3055 RMK AO2 SLP346 T00281017
                 53006 =
2014-04-17 03:52 METAR KNHK 170752Z AUTO 07006KT 10SM CLR 03/M02 A3055 RMK AO2 SLP344 T00281022 =
2014-04-17 02:52 METAR KNHK 170652Z AUTO 09008KT 10SM CLR 04/M02 A3054 RMK AO2 SLP341 T00441017 =
2014-04-17 01:52 METAR KNHK 170552Z AUTO 09008KT 10SM CLR 05/M01 A3054 RMK AO2 SLP340 T00501011
                 10067 20044 50006 =
2014-04-17 00:52 METAR KNHK 170452Z AUTO 09009KT 10SM CLR 05/M02 A3054 RMK AO2 SLP341 T00501017
                 400830006 =
2014-04-16 23:52 METAR KNHK 170352Z AUTO 05007KT 10SM CLR 04/M03 A3053 RMK AO2 SLP338 T00441033 =

Support USWX by starting your Amazon purchase here.